sensor_id;sensor_type;location;lat;lon;timestamp;pressure;altitude;pressure_sealevel;temperature;humidity
45467;BME280;31212;49.734;8.490;2022-07-10T00:02:13;101223.31;;;15.77;84.18
45467;BME280;31212;49.734;8.490;2022-07-10T00:04:40;101223.31;;;15.77;83.89
45467;BME280;31212;49.734;8.490;2022-07-10T00:07:06;101223.38;;;15.71;84.08
45467;BME280;31212;49.734;8.490;2022-07-10T00:09:33;101213.75;;;15.72;83.63
45467;BME280;31212;49.734;8.490;2022-07-10T00:11:59;101187.50;;;15.92;82.65
45467;BME280;31212;49.734;8.490;2022-07-10T00:14:27;101163.97;;;15.87;81.79
45467;BME280;31212;49.734;8.490;2022-07-10T00:16:54;101156.09;;;15.89;81.30
45467;BME280;31212;49.734;8.490;2022-07-10T00:19:20;101134.22;;;15.94;80.61
45467;BME280;31212;49.734;8.490;2022-07-10T00:21:47;101129.97;;;15.78;80.68
45467;BME280;31212;49.734;8.490;2022-07-10T00:24:13;101130.84;;;15.72;80.44
45467;BME280;31212;49.734;8.490;2022-07-10T00:26:39;101137.88;;;15.67;80.54
45467;BME280;31212;49.734;8.490;2022-07-10T00:29:06;101133.53;;;15.64;80.84
45467;BME280;31212;49.734;8.490;2022-07-10T00:31:35;101129.16;;;15.70;80.11
45467;BME280;31212;49.734;8.490;2022-07-10T00:34:01;101118.69;;;15.65;79.85
45467;BME280;31212;49.734;8.490;2022-07-10T00:36:28;101120.50;;;15.51;79.80
45467;BME280;31212;49.734;8.490;2022-07-10T00:38:54;101151.94;;;15.46;80.47
45467;BME280;31212;49.734;8.490;2022-07-10T00:41:21;101164.19;;;15.41;80.61
45467;BME280;31212;49.734;8.490;2022-07-10T00:43:52;101167.72;;;15.32;81.07
45467;BME280;31212;49.734;8.490;2022-07-10T00:46:24;101175.56;;;15.32;81.18
45467;BME280;31212;49.734;8.490;2022-07-10T00:48:52;101180.81;;;15.26;80.89
45467;BME280;31212;49.734;8.490;2022-07-10T00:51:21;101185.16;;;15.28;80.67
45467;BME280;31212;49.734;8.490;2022-07-10T00:53:48;101177.34;;;15.24;80.88
45467;BME280;31212;49.734;8.490;2022-07-10T00:56:16;101167.78;;;15.15;80.81
45467;BME280;31212;49.734;8.490;2022-07-10T00:58:43;101175.66;;;15.07;81.08
45467;BME280;31212;49.734;8.490;2022-07-10T01:01:10;101164.31;;;15.14;80.53
45467;BME280;31212;49.734;8.490;2022-07-10T01:03:36;101154.69;;;15.18;80.15
45467;BME280;31212;49.734;8.490;2022-07-10T01:06:04;101152.06;;;15.18;79.91
45467;BME280;31212;49.734;8.490;2022-07-10T01:08:32;101139.00;;;15.15;79.62
45467;BME280;31212;49.734;8.490;2022-07-10T01:10:59;101129.47;;;15.06;79.00
45467;BME280;31212;49.734;8.490;2022-07-10T01:13:26;101127.66;;;15.18;79.27
45467;BME280;31212;49.734;8.490;2022-07-10T01:15:53;101112.00;;;15.11;78.77
45467;BME280;31212;49.734;8.490;2022-07-10T01:18:19;101113.78;;;15.08;78.90
45467;BME280;31212;49.734;8.490;2022-07-10T01:20:51;101109.41;;;15.08;78.82
45467;BME280;31212;49.734;8.490;2022-07-10T01:23:17;101118.97;;;15.11;78.86
45467;BME280;31212;49.734;8.490;2022-07-10T01:25:44;101119.00;;;15.08;78.59
45467;BME280;31212;49.734;8.490;2022-07-10T01:28:10;101122.50;;;15.01;78.63
45467;BME280;31212;49.734;8.490;2022-07-10T01:30:37;101134.72;;;14.92;79.27
45467;BME280;31212;49.734;8.490;2022-07-10T01:33:03;101143.47;;;14.88;79.18
45467;BME280;31212;49.734;8.490;2022-07-10T01:35:30;101153.06;;;14.86;79.66
45467;BME280;31212;49.734;8.490;2022-07-10T01:37:58;101168.75;;;14.82;79.94
45467;BME280;31212;49.734;8.490;2022-07-10T01:40:24;101169.63;;;14.82;80.14
45467;BME280;31212;49.734;8.490;2022-07-10T01:42:51;101166.16;;;14.78;80.28
45467;BME280;31212;49.734;8.490;2022-07-10T01:45:17;101173.13;;;14.81;80.39
45467;BME280;31212;49.734;8.490;2022-07-10T01:47:44;101172.22;;;14.93;80.14
45467;BME280;31212;49.734;8.490;2022-07-10T01:50:10;101164.41;;;14.82;79.58
45467;BME280;31212;49.734;8.490;2022-07-10T01:52:37;101170.50;;;14.75;80.05
45467;BME280;31212;49.734;8.490;2022-07-10T01:55:06;101175.75;;;14.69;80.09
45467;BME280;31212;49.734;8.490;2022-07-10T01:57:33;101187.94;;;14.67;80.42
45467;BME280;31212;49.734;8.490;2022-07-10T01:59:59;101176.63;;;14.66;80.46
45467;BME280;31212;49.734;8.490;2022-07-10T02:02:26;101185.31;;;14.62;80.60
45467;BME280;31212;49.734;8.490;2022-07-10T02:04:52;101191.41;;;14.59;80.79
45467;BME280;31212;49.734;8.490;2022-07-10T02:07:18;101197.53;;;14.54;80.55
45467;BME280;31212;49.734;8.490;2022-07-10T02:09:47;101202.72;;;14.57;80.92
45467;BME280;31212;49.734;8.490;2022-07-10T02:12:15;101201.88;;;14.66;80.77
45467;BME280;31212;49.734;8.490;2022-07-10T02:14:42;101209.69;;;14.61;81.16
45467;BME280;31212;49.734;8.490;2022-07-10T02:17:08;101207.13;;;14.67;80.95
45467;BME280;31212;49.734;8.490;2022-07-10T02:19:36;101207.13;;;14.67;80.75
45467;BME280;31212;49.734;8.490;2022-07-10T02:22:03;101197.53;;;14.75;81.00
45467;BME280;31212;49.734;8.490;2022-07-10T02:24:30;101202.75;;;14.74;80.58
45467;BME280;31212;49.734;8.490;2022-07-10T02:26:57;101202.75;;;14.78;80.54
45467;BME280;31212;49.734;8.490;2022-07-10T02:29:27;101209.72;;;14.70;80.77
45467;BME280;31212;49.734;8.490;2022-07-10T02:31:54;101217.53;;;14.75;81.22
45467;BME280;31212;49.734;8.490;2022-07-10T02:34:20;101220.16;;;14.76;81.00
45467;BME280;31212;49.734;8.490;2022-07-10T02:36:47;101212.34;;;14.69;81.27
45467;BME280;31212;49.734;8.490;2022-07-10T02:39:13;101216.69;;;14.74;80.89
45467;BME280;31212;49.734;8.490;2022-07-10T02:41:40;101216.66;;;14.62;81.02
45467;BME280;31212;49.734;8.490;2022-07-10T02:44:06;101203.63;;;14.60;80.93
45467;BME280;31212;49.734;8.490;2022-07-10T02:46:34;101217.53;;;14.58;81.11
45467;BME280;31212;49.734;8.490;2022-07-10T02:49:00;101222.78;;;14.58;81.13
45467;BME280;31212;49.734;8.490;2022-07-10T02:51:27;101220.16;;;14.50;81.43
45467;BME280;31212;49.734;8.490;2022-07-10T02:53:54;101224.50;;;14.51;81.01
45467;BME280;31212;49.734;8.490;2022-07-10T02:56:21;101214.03;;;14.48;81.09
45467;BME280;31212;49.734;8.490;2022-07-10T02:58:47;101216.69;;;14.51;80.85
45467;BME280;31212;49.734;8.490;2022-07-10T03:01:14;101205.34;;;14.51;80.31
45467;BME280;31212;49.734;8.490;2022-07-10T03:03:41;101200.13;;;14.43;80.64
45467;BME280;31212;49.734;8.490;2022-07-10T03:06:08;101191.41;;;14.38;80.72
45467;BME280;31212;49.734;8.490;2022-07-10T03:08:34;101165.28;;;14.41;79.33
45467;BME280;31212;49.734;8.490;2022-07-10T03:11:01;101165.28;;;14.42;79.29
45467;BME280;31212;49.734;8.490;2022-07-10T03:13:27;101156.56;;;14.37;79.24
45467;BME280;31212;49.734;8.490;2022-07-10T03:15:54;101150.47;;;14.40;78.65
45467;BME280;31212;49.734;8.490;2022-07-10T03:18:21;101156.59;;;14.31;78.97
45467;BME280;31212;49.734;8.490;2022-07-10T03:20:49;101169.66;;;14.29;79.28
45467;BME280;31212;49.734;8.490;2022-07-10T03:23:15;101174.88;;;14.29;79.27
45467;BME280;31212;49.734;8.490;2022-07-10T03:25:42;101173.13;;;14.30;78.83
45467;BME280;31212;49.734;8.490;2022-07-10T03:28:08;101181.81;;;14.30;79.37
45467;BME280;31212;49.734;8.490;2022-07-10T03:30:35;101180.09;;;14.29;79.34
45467;BME280;31212;49.734;8.490;2022-07-10T03:33:01;101194.03;;;14.25;79.00
45467;BME280;31212;49.734;8.490;2022-07-10T03:35:28;101203.59;;;14.31;79.60
45467;BME280;31212;49.734;8.490;2022-07-10T03:37:57;101207.94;;;14.30;79.88
45467;BME280;31212;49.734;8.490;2022-07-10T03:40:24;101198.38;;;14.36;79.48
45467;BME280;31212;49.734;8.490;2022-07-10T03:42:51;101213.19;;;14.37;79.81
45467;BME280;31212;49.734;8.490;2022-07-10T03:45:18;101207.97;;;14.44;79.51
45467;BME280;31212;49.734;8.490;2022-07-10T03:47:44;101214.94;;;14.38;79.80
45467;BME280;31212;49.734;8.490;2022-07-10T03:50:11;101225.38;;;14.36;79.98
45467;BME280;31212;49.734;8.490;2022-07-10T03:52:37;101228.84;;;14.26;80.23
45467;BME280;31212;49.734;8.490;2022-07-10T03:55:06;101251.47;;;14.18;80.95
45467;BME280;31212;49.734;8.490;2022-07-10T03:57:32;101257.56;;;14.12;80.98
45467;BME280;31212;49.734;8.490;2022-07-10T04:00:16;101256.66;;;14.10;81.19
45467;BME280;31212;49.734;8.490;2022-07-10T04:02:43;101254.06;;;14.08;81.42
45467;BME280;31212;49.734;8.490;2022-07-10T04:05:10;101256.69;;;14.04;81.49
45467;BME280;31212;49.734;8.490;2022-07-10T04:07:37;101252.28;;;13.98;81.49
45467;BME280;31212;49.734;8.490;2022-07-10T04:10:06;101260.13;;;13.93;81.85
45467;BME280;31212;49.734;8.490;2022-07-10T04:12:32;101263.63;;;14.00;81.78
45467;BME280;31212;49.734;8.490;2022-07-10T04:14:59;101247.97;;;14.12;81.06
45467;BME280;31212;49.734;8.490;2022-07-10T04:17:25;101236.66;;;14.18;80.54
45467;BME280;31212;49.734;8.490;2022-07-10T04:19:52;101226.25;;;14.21;80.44
45467;BME280;31212;49.734;8.490;2022-07-10T04:22:18;101216.69;;;14.39;79.78
45467;BME280;31212;49.734;8.490;2022-07-10T04:24:45;101200.13;;;14.46;79.39
45467;BME280;31212;49.734;8.490;2022-07-10T04:27:13;101191.44;;;14.47;79.14
45467;BME280;31212;49.734;8.490;2022-07-10T04:29:42;101175.75;;;14.45;78.58
45467;BME280;31212;49.734;8.490;2022-07-10T04:32:08;101173.13;;;14.38;78.46
45467;BME280;31212;49.734;8.490;2022-07-10T04:34:35;101170.50;;;14.32;78.45
45467;BME280;31212;49.734;8.490;2022-07-10T04:37:01;101169.66;;;14.20;78.55
45467;BME280;31212;49.734;8.490;2022-07-10T04:39:28;101174.88;;;14.12;78.45
45467;BME280;31212;49.734;8.490;2022-07-10T04:41:54;101190.53;;;14.09;78.60
45467;BME280;31212;49.734;8.490;2022-07-10T04:44:22;101193.16;;;14.11;78.82
45467;BME280;31212;49.734;8.490;2022-07-10T04:46:49;101190.56;;;14.17;78.44
45467;BME280;31212;49.734;8.490;2022-07-10T04:49:15;101207.06;;;14.19;78.82
45467;BME280;31212;49.734;8.490;2022-07-10T04:51:42;101210.56;;;14.17;78.55
45467;BME280;31212;49.734;8.490;2022-07-10T04:54:08;101197.53;;;14.32;78.43
45467;BME280;31212;49.734;8.490;2022-07-10T04:56:35;101180.97;;;14.38;77.94
45467;BME280;31212;49.734;8.490;2022-07-10T04:59:01;101168.78;;;14.47;77.42
45467;BME280;31212;49.734;8.490;2022-07-10T05:01:29;101168.78;;;14.54;76.84
45467;BME280;31212;49.734;8.490;2022-07-10T05:03:56;101147.84;;;14.61;76.57
45467;BME280;31212;49.734;8.490;2022-07-10T05:06:23;101109.53;;;14.65;75.13
45467;BME280;31212;49.734;8.490;2022-07-10T05:08:49;101079.91;;;14.71;74.13
45467;BME280;31212;49.734;8.490;2022-07-10T05:11:16;101058.09;;;14.76;73.48
45467;BME280;31212;49.734;8.490;2022-07-10T05:13:42;101034.56;;;14.83;72.68
45467;BME280;31212;49.734;8.490;2022-07-10T05:16:11;101004.97;;;14.76;71.87
45467;BME280;31212;49.734;8.490;2022-07-10T05:18:39;101018.84;;;14.86;71.70
45467;BME280;31212;49.734;8.490;2022-07-10T05:21:06;100997.00;;;14.99;71.17
45467;BME280;31212;49.734;8.490;2022-07-10T05:23:33;100958.59;;;15.06;70.34
45467;BME280;31212;49.734;8.490;2022-07-10T05:25:59;100935.09;;;15.03;69.27
45467;BME280;31212;49.734;8.490;2022-07-10T05:28:26;100941.19;;;15.08;69.20
45467;BME280;31212;49.734;8.490;2022-07-10T05:30:53;100918.44;;;15.16;68.32
45467;BME280;31212;49.734;8.490;2022-07-10T05:33:19;100904.41;;;15.25;67.69
45467;BME280;31212;49.734;8.490;2022-07-10T05:35:47;100897.38;;;15.36;66.97
45467;BME280;31212;49.734;8.490;2022-07-10T05:38:14;100885.03;;;15.47;66.68
45467;BME280;31212;49.734;8.490;2022-07-10T05:40:43;100853.56;;;15.55;65.93
45467;BME280;31212;49.734;8.490;2022-07-10T05:43:09;100850.69;;;15.78;65.14
45467;BME280;31212;49.734;8.490;2022-07-10T05:45:37;100891.25;;;16.21;65.44
45467;BME280;31212;49.734;8.490;2022-07-10T05:48:03;100821.03;;;16.46;63.25
45467;BME280;31212;49.734;8.490;2022-07-10T05:50:30;100797.13;;;16.68;62.16
45467;BME280;31212;49.734;8.490;2022-07-10T05:52:58;100802.69;;;17.03;61.74
45467;BME280;31212;49.734;8.490;2022-07-10T05:55:25;100786.50;;;17.29;61.07
45467;BME280;31212;49.734;8.490;2022-07-10T05:57:51;100738.47;;;17.25;59.91
45467;BME280;31212;49.734;8.490;2022-07-10T06:00:20;100771.72;;;17.23;60.39
45467;BME280;31212;49.734;8.490;2022-07-10T06:02:46;100740.28;;;17.22;59.61
45467;BME280;31212;49.734;8.490;2022-07-10T06:05:13;100749.97;;;17.18;59.43
45467;BME280;31212;49.734;8.490;2022-07-10T06:07:40;100766.75;;;17.09;59.80
45467;BME280;31212;49.734;8.490;2022-07-10T06:10:08;100754.69;;;16.97;59.39
45467;BME280;31212;49.734;8.490;2022-07-10T06:12:34;100758.78;;;16.61;59.24
45467;BME280;31212;49.734;8.490;2022-07-10T06:15:03;100760.13;;;16.32;60.34
45467;BME280;31212;49.734;8.490;2022-07-10T06:17:29;100773.22;;;16.32;60.11
45467;BME280;31212;49.734;8.490;2022-07-10T06:19:55;100755.97;;;16.17;59.67
45467;BME280;31212;49.734;8.490;2022-07-10T06:22:22;100758.91;;;16.55;59.61
45467;BME280;31212;49.734;8.490;2022-07-10T06:24:58;100727.84;;;16.81;58.31
45467;BME280;31212;49.734;8.490;2022-07-10T06:27:26;100722.78;;;17.22;57.92
45467;BME280;31212;49.734;8.490;2022-07-10T06:29:53;100648.03;;;17.42;56.13
45467;BME280;31212;49.734;8.490;2022-07-10T06:32:20;100629.63;;;17.43;55.68
45467;BME280;31212;49.734;8.490;2022-07-10T06:34:47;100612.78;;;17.54;55.16
45467;BME280;31212;49.734;8.490;2022-07-10T06:37:13;100606.28;;;17.70;54.81
45467;BME280;31212;49.734;8.490;2022-07-10T06:39:40;100557.66;;;17.90;53.42
45467;BME280;31212;49.734;8.490;2022-07-10T06:42:06;100513.06;;;17.87;52.59
45467;BME280;31212;49.734;8.490;2022-07-10T06:44:41;100532.69;;;18.09;51.99
45467;BME280;31212;49.734;8.490;2022-07-10T06:47:07;100477.41;;;18.12;51.02
45467;BME280;31212;49.734;8.490;2022-07-10T06:49:52;100467.22;;;18.33;50.32
45467;BME280;31212;49.734;8.490;2022-07-10T06:52:19;100489.31;;;18.26;50.29
45467;BME280;31212;49.734;8.490;2022-07-10T06:54:46;100516.09;;;18.40;50.82
45467;BME280;31212;49.734;8.490;2022-07-10T06:57:13;100474.56;;;18.53;49.74
45467;BME280;31212;49.734;8.490;2022-07-10T06:59:41;100492.97;;;18.53;50.00
45467;BME280;31212;49.734;8.490;2022-07-10T07:02:08;100517.81;;;18.73;50.14
45467;BME280;31212;49.734;8.490;2022-07-10T07:04:34;100495.50;;;18.56;49.92
45467;BME280;31212;49.734;8.490;2022-07-10T07:07:02;100492.53;;;18.04;50.15
45467;BME280;31212;49.734;8.490;2022-07-10T07:09:28;100531.41;;;17.90;50.96
45467;BME280;31212;49.734;8.490;2022-07-10T07:11:55;100557.91;;;17.80;51.30
45467;BME280;31212;49.734;8.490;2022-07-10T07:14:21;100551.34;;;17.98;51.09
45467;BME280;31212;49.734;8.490;2022-07-10T07:16:49;100485.03;;;18.22;49.42
45467;BME280;31212;49.734;8.490;2022-07-10T07:19:24;100468.94;;;18.34;48.91
45467;BME280;31212;49.734;8.490;2022-07-10T07:21:57;100455.69;;;18.06;48.93
45467;BME280;31212;49.734;8.490;2022-07-10T07:24:42;100482.25;;;18.28;49.13
45467;BME280;31212;49.734;8.490;2022-07-10T07:27:09;100464.69;;;18.61;48.60
45467;BME280;31212;49.734;8.490;2022-07-10T07:29:35;100436.78;;;18.86;47.39
45467;BME280;31212;49.734;8.490;2022-07-10T07:32:04;100439.44;;;18.54;47.59
45467;BME280;31212;49.734;8.490;2022-07-10T07:34:30;100454.03;;;18.35;48.06
45467;BME280;31212;49.734;8.490;2022-07-10T07:36:57;100503.13;;;18.65;48.50
45467;BME280;31212;49.734;8.490;2022-07-10T07:39:23;100458.78;;;18.53;47.93
45467;BME280;31212;49.734;8.490;2022-07-10T07:41:50;100476.81;;;18.36;48.18
45467;BME280;31212;49.734;8.490;2022-07-10T07:44:16;100507.75;;;18.57;48.50
45467;BME280;31212;49.734;8.490;2022-07-10T07:46:43;100493.72;;;18.87;47.81
45467;BME280;31212;49.734;8.490;2022-07-10T07:49:11;100478.25;;;18.76;47.52
45467;BME280;31212;49.734;8.490;2022-07-10T07:51:38;100451.66;;;19.15;46.76
45467;BME280;31212;49.734;8.490;2022-07-10T07:54:04;100483.28;;;21.15;44.98
45467;BME280;31212;49.734;8.490;2022-07-10T07:56:31;100296.16;;;21.28;41.85
45467;BME280;31212;49.734;8.490;2022-07-10T07:58:57;100332.94;;;20.46;43.03
45467;BME280;31212;49.734;8.490;2022-07-10T08:01:24;100390.50;;;19.60;44.89
45467;BME280;31212;49.734;8.490;2022-07-10T08:03:50;100465.75;;;19.67;45.74
45467;BME280;31212;49.734;8.490;2022-07-10T08:06:18;100389.97;;;19.50;44.64
45467;BME280;31212;49.734;8.490;2022-07-10T08:08:45;100440.78;;;20.30;44.35
45467;BME280;31212;49.734;8.490;2022-07-10T08:11:11;100464.72;;;22.02;42.73
45467;BME280;31212;49.734;8.490;2022-07-10T08:13:38;100246.34;;;23.08;38.90
45467;BME280;31212;49.734;8.490;2022-07-10T08:16:05;100234.63;;;23.79;38.08
45467;BME280;31212;49.734;8.490;2022-07-10T08:18:31;100235.41;;;23.81;37.68
45467;BME280;31212;49.734;8.490;2022-07-10T08:20:58;100245.00;;;22.82;38.44
45467;BME280;31212;49.734;8.490;2022-07-10T08:23:26;100247.66;;;22.64;38.67
45467;BME280;31212;49.734;8.490;2022-07-10T08:25:52;100267.94;;;22.27;39.05
45467;BME280;31212;49.734;8.490;2022-07-10T08:28:19;100332.66;;;22.39;39.68
45467;BME280;31212;49.734;8.490;2022-07-10T08:30:45;100222.31;;;21.66;38.81
45467;BME280;31212;49.734;8.490;2022-07-10T08:33:12;100258.16;;;21.72;39.05
45467;BME280;31212;49.734;8.490;2022-07-10T08:35:38;100230.84;;;21.13;39.33
45467;BME280;31212;49.734;8.490;2022-07-10T08:38:07;100334.72;;;23.06;38.87
45467;BME280;31212;49.734;8.490;2022-07-10T08:40:35;100279.16;;;24.38;36.56
45467;BME280;31212;49.734;8.490;2022-07-10T08:43:02;100215.84;;;26.35;34.13
45467;BME280;31212;49.734;8.490;2022-07-10T08:45:31;100161.59;;;25.96;33.32
45467;BME280;31212;49.734;8.490;2022-07-10T08:48:01;100170.44;;;26.64;32.78
45467;BME280;31212;49.734;8.490;2022-07-10T08:50:29;100156.97;;;25.85;33.25
45467;BME280;31212;49.734;8.490;2022-07-10T08:53:00;100172.91;;;25.00;33.96
45467;BME280;31212;49.734;8.490;2022-07-10T08:55:29;100269.44;;;24.07;36.10
45467;BME280;31212;49.734;8.490;2022-07-10T08:57:58;100291.81;;;25.26;35.24
45467;BME280;31212;49.734;8.490;2022-07-10T09:00:25;100168.28;;;25.62;32.93
45467;BME280;31212;49.734;8.490;2022-07-10T09:02:53;100192.56;;;25.27;33.50
45467;BME280;31212;49.734;8.490;2022-07-10T09:05:20;100200.94;;;24.29;34.52
45467;BME280;31212;49.734;8.490;2022-07-10T09:07:47;100275.56;;;24.07;35.80
45467;BME280;31212;49.734;8.490;2022-07-10T09:10:13;100268.56;;;23.57;36.30
45467;BME280;31212;49.734;8.490;2022-07-10T09:12:50;100381.81;;;24.69;36.60
45467;BME280;31212;49.734;8.490;2022-07-10T09:15:19;100264.31;;;23.70;35.89
45467;BME280;31212;49.734;8.490;2022-07-10T09:17:51;100310.00;;;23.24;37.03
45467;BME280;31212;49.734;8.490;2022-07-10T09:20:29;100343.81;;;22.82;37.80
45467;BME280;31212;49.734;8.490;2022-07-10T09:22:57;100331.19;;;22.51;37.84
45467;BME280;31212;49.734;8.490;2022-07-10T09:25:31;100365.13;;;22.79;37.97
45467;BME280;31212;49.734;8.490;2022-07-10T09:27:59;100405.59;;;24.55;36.64
45467;BME280;31212;49.734;8.490;2022-07-10T09:30:37;100255.06;;;25.18;34.10
45467;BME280;31212;49.734;8.490;2022-07-10T09:33:23;100275.53;;;24.71;34.71
45467;BME280;31212;49.734;8.490;2022-07-10T09:36:06;100251.91;;;25.42;33.68
45467;BME280;31212;49.734;8.490;2022-07-10T09:39:03;100301.50;;;24.96;34.77
45467;BME280;31212;49.734;8.490;2022-07-10T09:41:30;100272.03;;;24.55;35.09
45467;BME280;31212;49.734;8.490;2022-07-10T09:43:58;100263.38;;;23.87;35.56
45467;BME280;31212;49.734;8.490;2022-07-10T09:46:30;100297.63;;;24.08;35.86
45467;BME280;31212;49.734;8.490;2022-07-10T09:49:05;100328.47;;;24.26;35.99
45467;BME280;31212;49.734;8.490;2022-07-10T09:51:33;100273.75;;;25.47;34.38
45467;BME280;31212;49.734;8.490;2022-07-10T09:54:01;100278.38;;;24.68;34.71
45467;BME280;31212;49.734;8.490;2022-07-10T09:56:33;100275.19;;;25.22;34.26
45467;BME280;31212;49.734;8.490;2022-07-10T09:59:00;100292.72;;;25.84;33.83
45467;BME280;31212;49.734;8.490;2022-07-10T10:01:30;100278.47;;;26.68;32.94
45467;BME280;31212;49.734;8.490;2022-07-10T10:03:58;100206.72;;;25.42;33.59
45467;BME280;31212;49.734;8.490;2022-07-10T10:06:30;100262.91;;;25.50;33.74
45467;BME280;31212;49.734;8.490;2022-07-10T10:09:01;100266.91;;;26.55;33.33
45467;BME280;31212;49.734;8.490;2022-07-10T10:11:32;100130.66;;;26.35;32.05
45467;BME280;31212;49.734;8.490;2022-07-10T10:14:00;100242.88;;;27.98;31.64
45467;BME280;31212;49.734;8.490;2022-07-10T10:16:27;100082.44;;;27.55;30.07
45467;BME280;31212;49.734;8.490;2022-07-10T10:18:55;100159.50;;;28.67;30.34
45467;BME280;31212;49.734;8.490;2022-07-10T10:21:40;100128.91;;;29.06;29.66
45467;BME280;31212;49.734;8.490;2022-07-10T10:24:06;100075.59;;;29.27;28.96
45467;BME280;31212;49.734;8.490;2022-07-10T10:26:33;100085.72;;;27.71;30.41
45467;BME280;31212;49.734;8.490;2022-07-10T10:29:01;100081.81;;;26.62;31.11
45467;BME280;31212;49.734;8.490;2022-07-10T10:31:29;100172.72;;;25.18;33.26
45467;BME280;31212;49.734;8.490;2022-07-10T10:33:58;100227.94;;;24.98;34.07
45467;BME280;31212;49.734;8.490;2022-07-10T10:36:48;100282.34;;;24.29;35.91
45467;BME280;31212;49.734;8.490;2022-07-10T10:39:16;100276.19;;;24.44;35.31
45467;BME280;31212;49.734;8.490;2022-07-10T10:41:48;100306.91;;;24.16;36.05
45467;BME280;31212;49.734;8.490;2022-07-10T10:44:25;100355.31;;;25.61;35.53
45467;BME280;31212;49.734;8.490;2022-07-10T10:46:58;100280.63;;;27.55;32.49
45467;BME280;31212;49.734;8.490;2022-07-10T10:49:51;100193.09;;;29.40;30.29
45467;BME280;31212;49.734;8.490;2022-07-10T10:52:18;100027.69;;;29.67;27.90
45467;BME280;31212;49.734;8.490;2022-07-10T10:55:03;100102.84;;;31.02;28.13
45467;BME280;31212;49.734;8.490;2022-07-10T10:57:40;100053.91;;;30.69;27.46
45467;BME280;31212;49.734;8.490;2022-07-10T11:00:14;100066.00;;;31.35;27.26
45467;BME280;31212;49.734;8.490;2022-07-10T11:02:42;100007.94;;;29.80;28.11
45467;BME280;31212;49.734;8.490;2022-07-10T11:08:38;100138.53;;;26.24;32.37
45467;BME280;31212;49.734;8.490;2022-07-10T11:11:39;100197.78;;;25.43;33.52
45467;BME280;31212;49.734;8.490;2022-07-10T11:14:09;100228.97;;;24.96;34.37
45467;BME280;31212;49.734;8.490;2022-07-10T11:16:37;100268.81;;;24.96;34.63
45467;BME280;31212;49.734;8.490;2022-07-10T11:19:11;100336.59;;;25.17;35.64
45467;BME280;31212;49.734;8.490;2022-07-10T11:21:45;100316.50;;;24.51;35.87
45467;BME280;31212;49.734;8.490;2022-07-10T11:24:27;100327.09;;;24.19;36.41
45467;BME280;31212;49.734;8.490;2022-07-10T11:27:09;100351.69;;;24.71;35.97
45467;BME280;31212;49.734;8.490;2022-07-10T11:29:39;100331.75;;;26.12;33.97
45467;BME280;31212;49.734;8.490;2022-07-10T11:32:06;100270.16;;;27.13;32.74
45467;BME280;31212;49.734;8.490;2022-07-10T11:34:36;100287.13;;;29.11;31.47
45467;BME280;31212;49.734;8.490;2022-07-10T11:37:03;100072.47;;;27.69;29.94
45467;BME280;31212;49.734;8.490;2022-07-10T11:39:41;100235.53;;;28.26;31.42
45467;BME280;31212;49.734;8.490;2022-07-10T11:42:07;100243.38;;;28.65;31.22
45467;BME280;31212;49.734;8.490;2022-07-10T11:44:34;100194.19;;;29.26;30.26
45467;BME280;31212;49.734;8.490;2022-07-10T11:47:01;100137.94;;;28.11;30.55
45467;BME280;31212;49.734;8.490;2022-07-10T11:49:28;100197.38;;;28.37;30.81
45467;BME280;31212;49.734;8.490;2022-07-10T11:52:01;100157.38;;;28.00;30.79
45467;BME280;31212;49.734;8.490;2022-07-10T11:54:28;100180.53;;;26.46;32.87
45467;BME280;31212;49.734;8.490;2022-07-10T11:57:05;100261.41;;;25.01;35.26
45467;BME280;31212;49.734;8.490;2022-07-10T11:59:32;100300.81;;;24.30;36.28
45467;BME280;31212;49.734;8.490;2022-07-10T12:02:02;100345.81;;;24.32;37.15
45467;BME280;31212;49.734;8.490;2022-07-10T12:04:31;100442.09;;;25.62;36.75
45467;BME280;31212;49.734;8.490;2022-07-10T12:06:58;100359.06;;;26.85;34.80
45467;BME280;31212;49.734;8.490;2022-07-10T12:09:25;100285.56;;;27.98;32.43
45467;BME280;31212;49.734;8.490;2022-07-10T12:12:00;100271.53;;;27.70;32.71
45467;BME280;31212;49.734;8.490;2022-07-10T12:14:28;100291.56;;;27.12;33.53
45467;BME280;31212;49.734;8.490;2022-07-10T12:16:56;100218.72;;;26.45;33.20
45467;BME280;31212;49.734;8.490;2022-07-10T12:19:24;100238.88;;;26.22;33.81
45467;BME280;31212;49.734;8.490;2022-07-10T12:21:53;100273.66;;;25.48;34.69
45467;BME280;31212;49.734;8.490;2022-07-10T12:24:20;100314.31;;;25.20;35.46
45467;BME280;31212;49.734;8.490;2022-07-10T12:26:47;100331.13;;;24.74;36.55
45467;BME280;31212;49.734;8.490;2022-07-10T12:29:21;100403.22;;;24.82;37.24
45467;BME280;31212;49.734;8.490;2022-07-10T12:31:49;100412.91;;;25.60;36.43
45467;BME280;31212;49.734;8.490;2022-07-10T12:34:16;100351.75;;;25.15;36.49
45467;BME280;31212;49.734;8.490;2022-07-10T12:36:48;100372.72;;;25.36;36.28
45467;BME280;31212;49.734;8.490;2022-07-10T12:39:16;100327.75;;;25.17;35.85
45467;BME280;31212;49.734;8.490;2022-07-10T12:41:56;100342.66;;;24.89;36.67
45467;BME280;31212;49.734;8.490;2022-07-10T12:44:32;100344.13;;;24.63;36.58
45467;BME280;31212;49.734;8.490;2022-07-10T12:47:03;100404.81;;;24.53;37.76
45467;BME280;31212;49.734;8.490;2022-07-10T12:49:48;100382.56;;;24.56;37.51
45467;BME280;31212;49.734;8.490;2022-07-10T12:52:20;100375.44;;;24.56;37.16
45467;BME280;31212;49.734;8.490;2022-07-10T12:54:47;100359.31;;;25.07;36.66
45467;BME280;31212;49.734;8.490;2022-07-10T12:57:13;100347.16;;;26.07;35.04
45467;BME280;31212;49.734;8.490;2022-07-10T12:59:41;100397.66;;;26.92;34.81
45467;BME280;31212;49.734;8.490;2022-07-10T13:02:16;100331.56;;;26.84;34.52